sensor_id;sensor_type;location;lat;lon;timestamp;pressure;altitude;pressure_sealevel;temperature;humidity
58739;BME280;44512;53.046;18.604;2023-04-21T00:04:41;102263.54;;;13.98;47.13
58739;BME280;44512;53.046;18.604;2023-04-21T00:15:09;102266.73;;;13.87;47.21
58739;BME280;44512;53.046;18.604;2023-04-21T00:25:37;102265.29;;;13.76;47.10
58739;BME280;44512;53.046;18.604;2023-04-21T00:36:05;102257.37;;;13.67;47.05
58739;BME280;44512;53.046;18.604;2023-04-21T00:46:35;102262.42;;;13.55;47.09
58739;BME280;44512;53.046;18.604;2023-04-21T00:57:02;102256.19;;;13.46;47.10
58739;BME280;44512;53.046;18.604;2023-04-21T01:07:30;102258.30;;;13.36;47.27
58739;BME280;44512;53.046;18.604;2023-04-21T01:17:59;102249.20;;;13.21;47.46
58739;BME280;44512;53.046;18.604;2023-04-21T01:28:27;102245.22;;;13.09;47.62
58739;BME280;44512;53.046;18.604;2023-04-21T01:38:56;102242.42;;;12.94;47.76
58739;BME280;44512;53.046;18.604;2023-04-21T01:49:24;102237.55;;;12.81;47.79
58739;BME280;44512;53.046;18.604;2023-04-21T01:59:52;102257.48;;;12.73;47.80
58739;BME280;44512;53.046;18.604;2023-04-21T02:10:21;102257.69;;;12.64;47.80
58739;BME280;44512;53.046;18.604;2023-04-21T02:20:49;102238.05;;;12.54;47.97
58739;BME280;44512;53.046;18.604;2023-04-21T02:31:18;102236.75;;;12.41;48.09
58739;BME280;44512;53.046;18.604;2023-04-21T02:41:46;102243.73;;;12.36;48.32
58739;BME280;44512;53.046;18.604;2023-04-21T02:52:14;102245.10;;;12.23;48.55
58739;BME280;44512;53.046;18.604;2023-04-21T03:02:43;102242.77;;;12.12;48.76
58739;BME280;44512;53.046;18.604;2023-04-21T03:13:12;102236.87;;;12.01;49.00
58739;BME280;44512;53.046;18.604;2023-04-21T03:23:40;102239.26;;;11.87;49.25
58739;BME280;44512;53.046;18.604;2023-04-21T03:34:08;102219.93;;;11.74;49.55
58739;BME280;44512;53.046;18.604;2023-04-21T03:44:36;102232.31;;;11.60;49.85
58739;BME280;44512;53.046;18.604;2023-04-21T03:55:05;102227.41;;;11.47;50.14
58739;BME280;44512;53.046;18.604;2023-04-21T04:05:36;102234.16;;;11.35;50.43
58739;BME280;44512;53.046;18.604;2023-04-21T04:16:02;102232.46;;;11.26;50.69
58739;BME280;44512;53.046;18.604;2023-04-21T04:26:30;102240.42;;;11.19;50.90
58739;BME280;44512;53.046;18.604;2023-04-21T04:37:00;102245.33;;;11.16;51.00
58739;BME280;44512;53.046;18.604;2023-04-21T04:47:27;102241.62;;;11.17;51.00
58739;BME280;44512;53.046;18.604;2023-04-21T04:57:55;102241.62;;;11.17;51.07
58739;BME280;44512;53.046;18.604;2023-04-21T05:08:24;102243.98;;;11.20;51.13
58739;BME280;44512;53.046;18.604;2023-04-21T05:18:52;102247.88;;;11.26;51.17
58739;BME280;44512;53.046;18.604;2023-04-21T05:29:21;102239.59;;;11.35;51.14
58739;BME280;44512;53.046;18.604;2023-04-21T05:39:50;102247.39;;;11.46;51.16
58739;BME280;44512;53.046;18.604;2023-04-21T05:50:18;102252.64;;;11.56;51.20
58739;BME280;44512;53.046;18.604;2023-04-21T06:00:46;102252.99;;;11.69;51.00
58739;BME280;44512;53.046;18.604;2023-04-21T06:11:14;102247.06;;;11.82;50.59
58739;BME280;44512;53.046;18.604;2023-04-21T06:21:43;102252.82;;;11.95;50.34
58739;BME280;44512;53.046;18.604;2023-04-21T06:32:11;102243.98;;;12.10;50.30
58739;BME280;44512;53.046;18.604;2023-04-21T06:42:39;102240.52;;;12.24;49.93
58739;BME280;44512;53.046;18.604;2023-04-21T06:53:09;102238.96;;;12.38;49.72
58739;BME280;44512;53.046;18.604;2023-04-21T07:03:36;102236.36;;;12.53;49.43
58739;BME280;44512;53.046;18.604;2023-04-21T07:14:05;102231.03;;;12.67;48.82
58739;BME280;44512;53.046;18.604;2023-04-21T07:24:33;102234.69;;;12.83;47.84
58739;BME280;44512;53.046;18.604;2023-04-21T07:35:01;102232.71;;;12.99;47.52
58739;BME280;44512;53.046;18.604;2023-04-21T07:45:30;102224.43;;;13.16;45.83
58739;BME280;44512;53.046;18.604;2023-04-21T07:55:58;102217.22;;;13.31;46.36
58739;BME280;44512;53.046;18.604;2023-04-21T08:06:26;102211.63;;;13.47;45.65
58739;BME280;44512;53.046;18.604;2023-04-21T08:16:55;102211.48;;;13.64;45.14
58739;BME280;44512;53.046;18.604;2023-04-21T08:27:23;102207.30;;;13.76;44.49
58739;BME280;44512;53.046;18.604;2023-04-21T08:37:52;102203.73;;;13.90;44.05
58739;BME280;44512;53.046;18.604;2023-04-21T08:48:21;102206.75;;;14.10;42.89
58739;BME280;44512;53.046;18.604;2023-04-21T08:58:48;102207.41;;;14.27;41.49
58739;BME280;44512;53.046;18.604;2023-04-21T09:09:17;102191.31;;;14.47;41.17
58739;BME280;44512;53.046;18.604;2023-04-21T09:19:45;102184.39;;;14.59;40.35
58739;BME280;44512;53.046;18.604;2023-04-21T09:30:18;102175.34;;;14.73;39.47
58739;BME280;44512;53.046;18.604;2023-04-21T09:40:42;102160.62;;;14.89;38.75
58739;BME280;44512;53.046;18.604;2023-04-21T09:51:11;102160.52;;;15.04;37.39
58739;BME280;44512;53.046;18.604;2023-04-21T10:01:39;102152.27;;;15.19;37.21
58739;BME280;44512;53.046;18.604;2023-04-21T10:12:07;102144.22;;;15.32;36.93
58739;BME280;44512;53.046;18.604;2023-04-21T10:22:35;102138.21;;;15.43;36.43
58739;BME280;44512;53.046;18.604;2023-04-21T10:33:04;102129.94;;;15.58;34.61
58739;BME280;44512;53.046;18.604;2023-04-21T10:43:42;102123.73;;;15.71;35.56
58739;BME280;44512;53.046;18.604;2023-04-21T10:54:03;102114.83;;;15.90;35.65
58739;BME280;44512;53.046;18.604;2023-04-21T11:04:29;102106.71;;;16.03;35.05
58739;BME280;44512;53.046;18.604;2023-04-21T11:14:57;102100.89;;;16.20;34.91
58739;BME280;44512;53.046;18.604;2023-04-21T11:25:25;102081.19;;;16.37;34.61
58739;BME280;44512;53.046;18.604;2023-04-21T11:35:53;102070.30;;;16.51;33.65
58739;BME280;44512;53.046;18.604;2023-04-21T11:46:24;102062.76;;;16.66;33.52
58739;BME280;44512;53.046;18.604;2023-04-21T11:56:50;102052.06;;;16.78;32.75
58739;BME280;44512;53.046;18.604;2023-04-21T12:07:21;102046.41;;;16.86;32.63
58739;BME280;44512;53.046;18.604;2023-04-21T12:17:49;102030.83;;;16.93;32.66
58739;BME280;44512;53.046;18.604;2023-04-21T12:28:15;102025.77;;;17.03;32.59
58739;BME280;44512;53.046;18.604;2023-04-21T12:38:44;102025.77;;;17.16;31.34
58739;BME280;44512;53.046;18.604;2023-04-21T12:49:12;102000.04;;;17.31;30.41
58739;BME280;44512;53.046;18.604;2023-04-21T12:59:40;101994.13;;;17.47;30.14
58739;BME280;44512;53.046;18.604;2023-04-21T13:10:09;101991.52;;;17.65;29.93
58739;BME280;44512;53.046;18.604;2023-04-21T13:20:37;101973.38;;;17.78;30.01
58739;BME280;44512;53.046;18.604;2023-04-21T13:31:05;101952.66;;;17.95;30.24
58739;BME280;44512;53.046;18.604;2023-04-21T13:41:33;101948.32;;;18.12;30.31
58739;BME280;44512;53.046;18.604;2023-04-21T13:52:02;101926.69;;;18.29;30.37
58739;BME280;44512;53.046;18.604;2023-04-21T14:02:30;101927.01;;;18.46;30.17
58739;BME280;44512;53.046;18.604;2023-04-21T14:12:58;101905.30;;;18.69;29.31
58739;BME280;44512;53.046;18.604;2023-04-21T14:23:27;101891.63;;;18.88;28.99
58739;BME280;44512;53.046;18.604;2023-04-21T14:33:55;101877.45;;;19.09;29.33
58739;BME280;44512;53.046;18.604;2023-04-21T14:49:37;101870.99;;;19.52;28.45
58739;BME280;44512;53.046;18.604;2023-04-21T15:00:06;101857.88;;;19.84;28.19
58739;BME280;44512;53.046;18.604;2023-04-21T15:10:33;101849.33;;;20.16;27.75
58739;BME280;44512;53.046;18.604;2023-04-21T15:21:02;101846.74;;;20.44;27.55
58739;BME280;44512;53.046;18.604;2023-04-21T15:31:30;101842.11;;;20.68;27.62
58739;BME280;44512;53.046;18.604;2023-04-21T15:41:58;101838.22;;;20.93;27.87
58739;BME280;44512;53.046;18.604;2023-04-21T15:52:27;101821.08;;;21.14;28.24
58739;BME280;44512;53.046;18.604;2023-04-21T16:02:55;101816.92;;;21.28;28.36
58739;BME280;44512;53.046;18.604;2023-04-21T16:13:23;101812.90;;;21.31;28.26
58739;BME280;44512;53.046;18.604;2023-04-21T16:23:52;101817.45;;;21.25;28.56
58739;BME280;44512;53.046;18.604;2023-04-21T16:34:20;101804.35;;;21.04;29.83
58739;BME280;44512;53.046;18.604;2023-04-21T16:44:48;101807.63;;;20.77;31.00
58739;BME280;44512;53.046;18.604;2023-04-21T16:55:17;101803.26;;;20.53;31.70
58739;BME280;44512;53.046;18.604;2023-04-21T17:05:45;101800.96;;;20.26;32.31
58739;BME280;44512;53.046;18.604;2023-04-21T17:16:13;101807.76;;;20.00;32.28
58739;BME280;44512;53.046;18.604;2023-04-21T17:26:42;101808.40;;;19.72;32.14
58739;BME280;44512;53.046;18.604;2023-04-21T17:37:10;101807.10;;;19.45;32.23
58739;BME280;44512;53.046;18.604;2023-04-21T17:47:39;101819.05;;;19.20;32.69
58739;BME280;44512;53.046;18.604;2023-04-21T17:58:07;101821.05;;;18.95;32.93
58739;BME280;44512;53.046;18.604;2023-04-21T18:08:36;101821.95;;;18.70;33.00
58739;BME280;44512;53.046;18.604;2023-04-21T18:19:03;101826.19;;;18.48;33.02
58739;BME280;44512;53.046;18.604;2023-04-21T18:29:32;101824.09;;;18.25;32.27
58739;BME280;44512;53.046;18.604;2023-04-21T18:40:00;101819.05;;;17.97;31.61
58739;BME280;44512;53.046;18.604;2023-04-21T18:50:28;101814.38;;;17.73;32.03
58739;BME280;44512;53.046;18.604;2023-04-21T19:00:57;101811.76;;;17.53;32.24
58739;BME280;44512;53.046;18.604;2023-04-21T19:11:25;101810.20;;;17.32;32.31
58739;BME280;44512;53.046;18.604;2023-04-21T19:21:54;101821.01;;;17.13;32.91
58739;BME280;44512;53.046;18.604;2023-04-21T19:32:22;101811.62;;;16.96;33.69
58739;BME280;44512;53.046;18.604;2023-04-21T19:42:50;101798.63;;;16.78;33.46
58739;BME280;44512;53.046;18.604;2023-04-21T19:53:19;101797.17;;;16.62;33.40
58739;BME280;44512;53.046;18.604;2023-04-21T20:03:47;101814.65;;;16.48;33.65
58739;BME280;44512;53.046;18.604;2023-04-21T20:14:15;101799.34;;;16.27;34.11
58739;BME280;44512;53.046;18.604;2023-04-21T20:24:44;101797.88;;;16.11;34.36
58739;BME280;44512;53.046;18.604;2023-04-21T20:35:13;101792.85;;;15.95;34.32
58739;BME280;44512;53.046;18.604;2023-04-21T20:45:40;101789.49;;;15.80;34.16
58739;BME280;44512;53.046;18.604;2023-04-21T20:56:09;101796.63;;;15.68;34.28
58739;BME280;44512;53.046;18.604;2023-04-21T21:06:37;101800.34;;;15.53;34.08
58739;BME280;44512;53.046;18.604;2023-04-21T21:17:06;101799.05;;;15.36;33.95
58739;BME280;44512;53.046;18.604;2023-04-21T21:27:34;101799.00;;;15.23;33.93
58739;BME280;44512;53.046;18.604;2023-04-21T21:38:02;101793.53;;;15.09;33.82
58739;BME280;44512;53.046;18.604;2023-04-21T21:48:31;101790.95;;;14.95;33.97
58739;BME280;44512;53.046;18.604;2023-04-21T21:58:59;101798.61;;;14.78;34.15
58739;BME280;44512;53.046;18.604;2023-04-21T22:09:27;101805.43;;;14.61;34.39
58739;BME280;44512;53.046;18.604;2023-04-21T22:19:56;101800.29;;;14.44;34.71
58739;BME280;44512;53.046;18.604;2023-04-21T22:30:24;101801.19;;;14.23;35.03
58739;BME280;44512;53.046;18.604;2023-04-21T22:40:53;101798.94;;;14.05;35.49
58739;BME280;44512;53.046;18.604;2023-04-21T22:51:21;101796.51;;;13.89;36.01
58739;BME280;44512;53.046;18.604;2023-04-21T23:01:49;101794.27;;;13.71;36.44
58739;BME280;44512;53.046;18.604;2023-04-21T23:12:18;101799.15;;;13.54;36.86
58739;BME280;44512;53.046;18.604;2023-04-21T23:22:46;101789.35;;;13.39;37.26
58739;BME280;44512;53.046;18.604;2023-04-21T23:33:14;101797.73;;;13.22;37.64
58739;BME280;44512;53.046;18.604;2023-04-21T23:43:43;101786.01;;;13.07;38.07
58739;BME280;44512;53.046;18.604;2023-04-21T23:54:11;101788.95;;;12.91;38.46
